メインページ
METAR-TAF:

METAR-TAF

空港 :

エセンボーア国際空港

アンカラ-エセンボーア, トルコ

緯度: 40-07N, 経度: 032-59E, 海抜: 953m

現時点の気象観測

当レポートは44分前の07:50(UTC)に作成
変向風 3kt
気温 19°C
湿度 60%
気圧 1019 hPa
視程10km以上
高度4000ftの雲は散在している

METAR: LTAC 210750Z VRB03KT 9999 SCT040 19/11 Q1019 NOSIG RMK RWY21L VRB04KT RWY03L VRB03KT RWY21R VRB05KT

時間: 11:34 (08:34 UTC)

予報

当レポートは3時間54分前の04:40(UTC)に作成
予報は21日の 06時(UTC)から 22日の 06時(UTC)まで有効
変向風 2kt
視程10km以上
高度4000ftの雲は散在している
21日の 08時(UTC)から 21日の 12時(UTC)まで一時的に
高度2500ftの雲はほとんどない, 積乱雲.
高度3000ftの千切れ雲あり
弱いにわか雨
21日の 14時(UTC)から 21日の 18時(UTC)まで一時的に
北/北東の風 15kt、最大25ktの突風を伴う
高度2500ftの雲はほとんどない, 積乱雲.
高度3000ftの千切れ雲あり
激しい雷雨, 小雨

TAF: LTAC 210440Z 2106/2206 VRB02KT 9999 SCT040 TEMPO 2108/2112 -SHRA FEW025CB BKN030 TEMPO 2114/2118 03015G25KT -TSRA FEW025CB BKN030

4,000以上の空港の気象観測と天気予報(METAR報とTAF報)

利用可能な観測所は地図上に黄色い丸と赤い丸で示す。

丸の上にカーソルを重ねると観測所名を参照できる。

次にクリックすると気象観測と天気予報を参照できる。

マップの切り替え:黒色「×」印の緑ボタンをクリックして拡大、「-」印の緑ボタンをクリックして縮小、緑色の三角印をクリックして隣りの地図に切り替え


METAR-TAF: